フォルタレザ の空港の天気 - METARとTAF

フォルタレザ/ピント・マーティンズ国際空港 ( SBFZ / FOR ) - ブラジル セアラー州フォルタレザ
飛行場実況気象(Metar)
観測時間11/17 17:00 BRT (11/17 20:00 UTC)
風向・風速東北東 7m/s
視程10km以上
天気現象
なし
気温29℃
湿度66%
気圧1010hPa
METARSBFZ 172000Z 07013KT CAVOK 29/22 Q1010
過去の天気等 Google飛行場航空写真 Wunderground天気予報

過去48時間のMETAR

飛行場予報(TAF)
発表時間: 11/17 12:30 BRT (11/17 15:30 UTC)
予報対象時間: 17日15時 BRT ~ 18日15時 BRT
風向・風速東 6m/s
視程10km以上
全天の4割程度の雲 雲底高度 760m
18日6時 BRT ~ 18日8時 BRT に徐々に
風向・風速東 9m/s
全天の8割程度の雲 雲底高度 700m
18日11時 BRT ~ 18日12時 BRT に徐々に
全天の4割程度の雲 雲底高度 760m
TAF SBFZ 171530Z 1718/1818 09012KT 9999 SCT025 TN26/1808Z TX31/1815Z
BECMG 1809/1811 09017KT BKN023
BECMG 1814/1815 SCT025 RMK PEA